createdAt,value
2019-06-10T00:00:13.493Z,20.29
2019-06-10T00:02:41.405Z,20.31
2019-06-10T00:05:11.982Z,20.28
2019-06-10T00:07:42.508Z,20.30
2019-06-10T00:10:14.471Z,20.23
2019-06-10T00:12:44.867Z,20.23
2019-06-10T00:15:15.243Z,20.23
2019-06-10T00:17:54.839Z,20.21
2019-06-10T00:20:17.804Z,20.19
2019-06-10T00:22:48.181Z,20.20
2019-06-10T00:25:20.866Z,20.22
2019-06-10T00:27:51.246Z,20.25
2019-06-10T00:30:21.696Z,20.21
2019-06-10T00:32:52.175Z,20.21
2019-06-10T00:35:22.655Z,20.17
2019-06-10T00:37:53.037Z,20.18
2019-06-10T00:40:23.426Z,20.15
2019-06-10T00:42:53.779Z,20.13
2019-06-10T00:45:24.259Z,20.16
2019-06-10T00:48:08.576Z,20.17
2019-06-10T00:50:26.863Z,20.13
2019-06-10T00:52:57.239Z,20.10
2019-06-10T00:55:27.671Z,20.08
2019-06-10T00:58:01.068Z,20.08
2019-06-10T01:00:32.235Z,20.09
2019-06-10T01:03:03.870Z,20.02
2019-06-10T01:05:34.381Z,20.00
2019-06-10T01:08:04.875Z,19.95
2019-06-10T01:10:35.408Z,19.92
2019-06-10T01:13:06.982Z,19.92
2019-06-10T01:15:37.432Z,19.93
2019-06-10T01:18:22.113Z,19.97
2019-06-10T01:20:41.228Z,19.92
2019-06-10T01:23:15.501Z,19.91
2019-06-10T01:25:44.308Z,19.88
2019-06-10T01:28:16.835Z,19.88
2019-06-10T01:30:46.793Z,19.87
2019-06-10T01:33:17.623Z,19.89
2019-06-10T01:35:48.113Z,19.90
2019-06-10T01:38:21.075Z,19.87
2019-06-10T01:40:51.230Z,19.85
2019-06-10T01:43:21.606Z,19.83
2019-06-10T01:45:51.945Z,19.79
2019-06-10T01:48:22.419Z,19.84
2019-06-10T01:50:52.965Z,19.83
2019-06-10T01:53:23.466Z,19.84
2019-06-10T01:55:53.888Z,19.81
2019-06-10T01:58:24.247Z,19.83
2019-06-10T02:01:04.487Z,19.84
2019-06-10T02:03:34.926Z,19.77
2019-06-10T02:06:05.522Z,19.80
2019-06-10T02:08:35.995Z,19.68
2019-06-10T02:11:06.512Z,19.67
2019-06-10T02:13:36.919Z,19.65
2019-06-10T02:16:07.353Z,19.71
2019-06-10T02:18:37.705Z,19.63
2019-06-10T02:21:11.558Z,19.59
2019-06-10T02:23:41.257Z,19.62
2019-06-10T02:26:14.572Z,19.52
2019-06-10T02:28:43.850Z,19.53
2019-06-10T02:31:17.499Z,19.55
2019-06-10T02:33:46.481Z,19.55
2019-06-10T02:36:20.184Z,19.50
2019-06-10T02:38:49.448Z,19.45
2019-06-10T02:41:24.067Z,19.48
2019-06-10T02:43:53.406Z,19.49
2019-06-10T02:46:30.652Z,19.48
2019-06-10T02:48:56.087Z,19.45
2019-06-10T02:51:30.845Z,19.37
2019-06-10T02:53:59.134Z,19.40
2019-06-10T02:56:34.985Z,19.40
2019-06-10T02:59:03.366Z,19.38
2019-06-10T03:01:37.915Z,19.41
2019-06-10T03:04:05.780Z,19.43
2019-06-10T03:06:39.762Z,19.40
2019-06-10T03:09:08.426Z,19.48
2019-06-10T03:11:38.847Z,19.48
2019-06-10T03:14:09.442Z,19.48
2019-06-10T03:16:52.585Z,19.49
2019-06-10T03:19:38.381Z,19.56
2019-06-10T03:21:54.497Z,19.60
2019-06-10T03:24:25.370Z,19.61
2019-06-10T03:26:55.805Z,19.66
2019-06-10T03:29:27.874Z,19.70
2019-06-10T03:31:58.332Z,19.74
2019-06-10T03:34:36.300Z,19.74
2019-06-10T03:37:02.490Z,19.82
2019-06-10T03:39:33.037Z,19.80
2019-06-10T03:42:03.528Z,19.89
2019-06-10T03:44:34.005Z,19.95
2019-06-10T03:47:04.401Z,20.05
2019-06-10T03:49:49.025Z,20.07
2019-06-10T03:52:07.043Z,20.20
2019-06-10T03:54:37.496Z,20.20
2019-06-10T03:57:07.877Z,20.35
2019-06-10T03:59:38.835Z,20.33
2019-06-10T04:02:09.572Z,20.44
2019-06-10T04:04:40.097Z,20.57
2019-06-10T04:07:10.507Z,20.62
2019-06-10T04:09:42.517Z,20.73
2019-06-10T04:12:13.002Z,20.79
2019-06-10T04:14:43.377Z,20.83
2019-06-10T04:17:13.947Z,20.96
2019-06-10T04:19:44.449Z,21.00
2019-06-10T04:22:14.894Z,21.31
2019-06-10T04:24:45.402Z,21.31
2019-06-10T04:27:15.871Z,21.50
2019-06-10T04:29:46.233Z,21.58
2019-06-10T04:32:16.679Z,21.97
2019-06-10T04:34:47.125Z,21.97
2019-06-10T04:37:18.356Z,22.07
2019-06-10T04:39:48.851Z,22.19
2019-06-10T04:42:20.884Z,22.26
2019-06-10T04:44:52.573Z,22.43
2019-06-10T04:47:24.946Z,22.28
2019-06-10T04:49:55.119Z,22.52
2019-06-10T04:52:26.687Z,22.68
2019-06-10T04:54:57.643Z,22.78
2019-06-10T04:57:29.301Z,23.16
2019-06-10T05:00:02.552Z,23.22
2019-06-10T05:02:33.055Z,23.25
2019-06-10T05:05:03.825Z,23.32
2019-06-10T05:07:37.111Z,23.54
2019-06-10T05:10:06.723Z,23.64
2019-06-10T05:12:37.184Z,23.62
2019-06-10T05:15:08.045Z,23.81
2019-06-10T05:17:38.806Z,24.36
2019-06-10T05:20:09.578Z,24.71
2019-06-10T05:22:42.197Z,24.97
2019-06-10T05:25:12.879Z,25.00
2019-06-10T05:27:43.517Z,25.50
2019-06-10T05:30:14.119Z,26.14
2019-06-10T05:32:44.589Z,25.73
2019-06-10T05:35:15.242Z,25.58
2019-06-10T05:37:45.703Z,26.18
2019-06-10T05:40:16.803Z,26.60
2019-06-10T05:42:47.221Z,26.59
2019-06-10T05:45:17.773Z,26.94
2019-06-10T05:47:48.717Z,27.44
2019-06-10T05:50:21.829Z,27.94
2019-06-10T05:52:52.068Z,28.39
2019-06-10T05:55:23.995Z,28.01
2019-06-10T05:57:55.006Z,27.90
2019-06-10T06:00:26.096Z,28.40
2019-06-10T06:02:56.904Z,28.62
2019-06-10T06:05:27.982Z,28.80
2019-06-10T06:08:05.707Z,29.70
2019-06-10T06:10:33.909Z,29.93
2019-06-10T06:13:03.298Z,30.89
2019-06-10T06:15:35.802Z,32.14
2019-06-10T06:18:10.122Z,33.05
2019-06-10T06:20:37.891Z,32.66
2019-06-10T06:23:12.236Z,33.08
2019-06-10T06:25:46.356Z,33.00
2019-06-10T06:28:16.200Z,33.79
2019-06-10T06:30:46.904Z,34.26
2019-06-10T06:33:17.304Z,35.51
2019-06-10T06:35:47.706Z,36.67
2019-06-10T06:38:18.096Z,37.56
2019-06-10T06:40:48.470Z,36.30
2019-06-10T06:43:18.889Z,36.42
2019-06-10T06:45:49.273Z,36.18
2019-06-10T06:48:19.721Z,36.25
2019-06-10T06:51:03.048Z,37.53
2019-06-10T06:53:32.691Z,37.42
2019-06-10T06:55:55.987Z,37.85
2019-06-10T06:58:26.475Z,34.78
2019-06-10T07:01:07.405Z,35.16
2019-06-10T07:03:29.755Z,36.86
2019-06-10T07:06:02.727Z,38.39
2019-06-10T07:08:36.090Z,38.27
2019-06-10T07:15:28.055Z,39.86
2019-06-10T07:18:53.919Z,38.75
2019-06-10T07:22:17.618Z,41.72
2019-06-10T07:25:42.245Z,43.19
2019-06-10T07:28:12.511Z,43.21
2019-06-10T07:30:51.121Z,42.00
2019-06-10T07:33:15.152Z,42.29
2019-06-10T07:35:45.755Z,44.96
2019-06-10T07:38:16.340Z,42.23
2019-06-10T07:40:46.962Z,40.18
2019-06-10T07:43:18.713Z,42.57
2019-06-10T07:45:53.378Z,44.37
2019-06-10T07:48:23.748Z,41.91
2019-06-10T07:50:54.302Z,41.61
2019-06-10T07:53:24.870Z,40.67
2019-06-10T07:55:55.340Z,40.74
2019-06-10T07:58:25.843Z,40.34
2019-06-10T08:00:56.321Z,43.70
2019-06-10T08:03:27.023Z,44.11
2019-06-10T08:05:57.543Z,44.09
2019-06-10T08:08:28.240Z,46.14
2019-06-10T08:10:58.851Z,45.20
2019-06-10T08:13:32.077Z,45.09
2019-06-10T08:16:02.904Z,44.64
2019-06-10T08:18:44.548Z,44.70
2019-06-10T08:21:05.977Z,44.07
2019-06-10T08:23:37.462Z,41.84
2019-06-10T08:26:09.242Z,42.94
2019-06-10T08:28:39.829Z,43.59
2019-06-10T08:31:12.405Z,45.58
2019-06-10T08:33:47.041Z,46.06
2019-06-10T08:36:15.429Z,46.95
2019-06-10T08:38:48.639Z,44.61
2019-06-10T08:41:18.144Z,44.70
2019-06-10T08:43:48.959Z,49.26
2019-06-10T08:46:22.342Z,49.64
2019-06-10T08:48:52.700Z,49.82
2019-06-10T08:51:23.950Z,51.57
2019-06-10T08:53:55.003Z,50.81
2019-06-10T08:56:25.599Z,48.03
2019-06-10T08:58:56.086Z,44.99
2019-06-10T09:01:26.627Z,45.48
2019-06-10T09:03:57.106Z,49.46
2019-06-10T09:06:27.704Z,51.30
2019-06-10T09:08:59.069Z,51.88
2019-06-10T09:11:32.722Z,50.34
2019-06-10T09:14:02.757Z,48.44
2019-06-10T09:16:33.329Z,45.69
2019-06-10T09:19:03.849Z,46.67
2019-06-10T09:21:34.539Z,50.03
2019-06-10T09:24:05.224Z,51.89
2019-06-10T09:26:37.601Z,52.43
2019-06-10T09:29:08.485Z,54.58
2019-06-10T09:31:40.355Z,56.12
2019-06-10T09:34:12.759Z,56.97
2019-06-10T09:36:46.612Z,56.94
2019-06-10T09:39:14.991Z,51.48
2019-06-10T09:41:55.405Z,51.48
2019-06-10T09:44:19.567Z,48.68
2019-06-10T09:46:55.785Z,49.19
2019-06-10T09:49:24.106Z,49.68
2019-06-10T09:51:57.305Z,47.44
2019-06-10T09:54:26.693Z,48.26
2019-06-10T09:56:57.167Z,49.01
2019-06-10T09:59:27.620Z,48.59
2019-06-10T10:02:02.748Z,49.12
2019-06-10T10:04:32.729Z,51.98
2019-06-10T10:07:03.203Z,49.33
2019-06-10T10:09:37.045Z,49.87
2019-06-10T10:12:06.591Z,50.71
2019-06-10T10:14:37.095Z,53.13
2019-06-10T10:20:14.871Z,50.96
2019-06-10T10:22:47.047Z,50.01
2019-06-10T10:25:17.393Z,47.36
2019-06-10T10:27:51.405Z,51.94
2019-06-10T10:30:26.582Z,48.81
2019-06-10T10:32:57.101Z,48.37
2019-06-10T10:35:27.889Z,48.63
2019-06-10T10:37:58.372Z,46.29
2019-06-10T10:40:29.073Z,46.96
2019-06-10T10:43:19.940Z,48.56
2019-06-10T10:45:32.900Z,50.82
2019-06-10T10:48:03.349Z,49.01
2019-06-10T10:50:34.223Z,47.94
2019-06-10T10:53:04.719Z,47.41
2019-06-10T10:55:35.270Z,46.59
2019-06-10T10:58:06.631Z,47.98
2019-06-10T11:00:46.825Z,44.76
2019-06-10T11:03:16.647Z,46.59
2019-06-10T11:05:49.612Z,45.58
2019-06-10T11:08:19.622Z,44.36
2019-06-10T11:10:55.499Z,43.54
2019-06-10T11:13:25.508Z,45.49
2019-06-10T11:15:57.139Z,47.79
2019-06-10T11:18:28.093Z,46.98
2019-06-10T11:21:01.774Z,45.59
2019-06-10T11:23:34.275Z,43.68
2019-06-10T11:26:02.714Z,42.12
2019-06-10T11:28:33.164Z,38.91
2019-06-10T11:31:04.011Z,37.97
2019-06-10T11:33:34.619Z,36.18
2019-06-10T11:36:05.264Z,34.89
2019-06-10T11:38:35.661Z,34.54
2019-06-10T11:41:06.129Z,34.44
2019-06-10T11:43:36.474Z,33.81
2019-06-10T11:46:07.898Z,33.72
2019-06-10T11:48:38.676Z,33.70
2019-06-10T11:51:09.152Z,33.49
2019-06-10T11:53:39.636Z,33.37
2019-06-10T11:56:10.057Z,33.08
2019-06-10T11:58:42.536Z,32.71
2019-06-10T12:01:13.443Z,32.33
2019-06-10T12:03:44.036Z,32.25
2019-06-10T12:06:14.681Z,32.45
2019-06-10T12:08:45.261Z,32.15
2019-06-10T12:11:15.633Z,32.12
2019-06-10T12:13:46.001Z,32.36
2019-06-10T12:18:49.113Z,32.40
2019-06-10T12:21:19.768Z,32.73
2019-06-10T12:23:53.301Z,32.94
2019-06-10T12:26:23.467Z,33.42
2019-06-10T12:28:56.267Z,33.51
2019-06-10T12:31:26.080Z,33.46
2019-06-10T12:33:57.638Z,33.09
2019-06-10T12:36:28.966Z,33.46
2019-06-10T12:39:06.758Z,34.10
2019-06-10T12:41:33.153Z,34.70
2019-06-10T12:44:04.648Z,34.90
2019-06-10T12:46:35.189Z,34.92
2019-06-10T12:49:08.458Z,35.32
2019-06-10T12:51:38.073Z,35.61
2019-06-10T12:54:08.781Z,35.00
2019-06-10T12:56:39.538Z,35.01
2019-06-10T12:59:13.669Z,34.24
2019-06-10T13:01:44.797Z,33.64
2019-06-10T13:04:15.507Z,33.47
2019-06-10T13:06:47.801Z,34.14
2019-06-10T13:09:19.410Z,34.00
2019-06-10T13:11:52.599Z,33.71
2019-06-10T13:14:22.230Z,33.73
2019-06-10T13:16:52.813Z,33.45
2019-06-10T13:19:23.352Z,32.96
2019-06-10T13:21:55.086Z,32.77
2019-06-10T13:24:25.597Z,32.68
2019-06-10T13:26:56.598Z,32.46
2019-06-10T13:29:26.975Z,32.56
2019-06-10T13:31:58.041Z,32.53
2019-06-10T13:34:28.953Z,32.83
2019-06-10T13:36:59.424Z,33.30
2019-06-10T13:39:29.817Z,33.62
2019-06-10T13:42:03.262Z,33.41
2019-06-10T13:44:32.359Z,33.17
2019-06-10T13:47:07.126Z,32.93
2019-06-10T13:49:36.074Z,32.66
2019-06-10T13:52:11.583Z,32.58
2019-06-10T13:54:39.049Z,32.51
2019-06-10T13:57:11.648Z,32.54
2019-06-10T13:59:42.737Z,32.48
2019-06-10T14:02:13.876Z,32.55
2019-06-10T14:04:44.268Z,32.65
2019-06-10T14:07:17.417Z,32.50
2019-06-10T14:09:46.819Z,32.23
2019-06-10T14:12:17.898Z,32.19
2019-06-10T14:14:48.721Z,32.36
2019-06-10T14:17:22.130Z,32.35
2019-06-10T14:19:51.546Z,32.24
2019-06-10T14:22:22.869Z,32.11
2019-06-10T14:24:54.200Z,32.06
2019-06-10T14:27:25.622Z,31.95
2019-06-10T14:29:56.768Z,31.84
2019-06-10T14:33:04.234Z,31.73
2019-06-10T14:35:35.423Z,31.86
2019-06-10T14:38:06.468Z,31.95
2019-06-10T14:40:37.116Z,32.04
2019-06-10T14:43:08.245Z,32.02
2019-06-10T14:45:39.188Z,31.92
2019-06-10T14:48:11.491Z,31.61
2019-06-10T14:50:43.551Z,31.78
2019-06-10T14:53:15.654Z,31.85
2019-06-10T14:55:46.135Z,31.74
2019-06-10T14:58:19.282Z,31.56
2019-06-10T15:00:49.091Z,31.42
2019-06-10T15:03:20.650Z,31.30
2019-06-10T15:05:52.965Z,31.39
2019-06-10T15:08:23.329Z,31.45
2019-06-10T15:10:53.897Z,31.47
2019-06-10T15:13:24.288Z,31.47
2019-06-10T15:15:54.786Z,31.51
2019-06-10T15:18:25.208Z,31.40
2019-06-10T15:20:55.617Z,31.55
2019-06-10T15:23:26.029Z,31.33
2019-06-10T15:25:57.213Z,31.28
2019-06-10T15:28:27.838Z,31.22
2019-06-10T15:30:58.849Z,31.35
2019-06-10T15:33:32.390Z,31.28
2019-06-10T15:36:02.308Z,31.23
2019-06-10T15:38:33.059Z,31.25
2019-06-10T15:41:03.407Z,31.48
2019-06-10T15:43:33.771Z,31.36
2019-06-10T15:46:04.182Z,31.30
2019-06-10T15:48:34.564Z,31.26
2019-06-10T15:51:05.167Z,31.20
2019-06-10T15:53:35.638Z,31.06
2019-06-10T15:56:14.465Z,31.30
2019-06-10T15:58:38.773Z,31.28
2019-06-10T16:01:09.452Z,31.25
2019-06-10T16:03:42.216Z,31.16
2019-06-10T16:06:12.193Z,31.06
2019-06-10T16:08:43.142Z,31.18
2019-06-10T16:11:16.546Z,31.15
2019-06-10T16:13:45.740Z,31.20
2019-06-10T16:16:16.870Z,31.22
2019-06-10T16:18:47.341Z,31.25
2019-06-10T16:21:19.116Z,31.22
2019-06-10T16:23:53.130Z,31.27
2019-06-10T16:26:25.294Z,31.41
2019-06-10T16:28:54.431Z,31.41
2019-06-10T16:31:27.187Z,31.34
2019-06-10T16:33:56.854Z,31.28
2019-06-10T16:36:28.092Z,31.26
2019-06-10T16:38:58.941Z,31.34
2019-06-10T16:41:31.863Z,31.30
2019-06-10T16:44:03.021Z,31.21
2019-06-10T16:46:33.436Z,31.22
2019-06-10T16:49:03.928Z,31.14
2019-06-10T16:51:34.333Z,31.08
2019-06-10T16:54:04.767Z,30.98
2019-06-10T16:56:35.282Z,31.02
2019-06-10T16:59:05.714Z,30.89
2019-06-10T17:01:36.124Z,30.86
2019-06-10T17:04:06.661Z,31.02
2019-06-10T17:06:37.138Z,31.00
2019-06-10T17:09:08.525Z,31.02
2019-06-10T17:11:39.298Z,30.97
2019-06-10T17:14:09.736Z,30.93
2019-06-10T17:16:40.794Z,30.95
2019-06-10T17:19:11.268Z,30.92
2019-06-10T17:21:42.276Z,30.89
2019-06-10T17:24:12.919Z,30.87
2019-06-10T17:26:43.289Z,30.85
2019-06-10T17:29:13.632Z,30.84
2019-06-10T17:31:44.151Z,30.78
2019-06-10T17:34:14.544Z,30.77
2019-06-10T17:36:44.881Z,30.79
2019-06-10T17:39:15.295Z,30.59
2019-06-10T17:41:45.792Z,30.53
2019-06-10T17:44:16.199Z,30.51
2019-06-10T17:46:46.566Z,30.45
2019-06-10T17:49:16.963Z,30.32
2019-06-10T17:51:47.370Z,30.27
2019-06-10T17:54:17.739Z,30.24
2019-06-10T17:56:48.774Z,30.23
2019-06-10T17:59:22.077Z,30.20
2019-06-10T18:01:52.689Z,30.11
2019-06-10T18:04:24.053Z,30.02
2019-06-10T18:06:55.241Z,30.02
2019-06-10T18:09:26.142Z,29.90
2019-06-10T18:11:56.737Z,29.73
2019-06-10T18:14:28.136Z,29.61
2019-06-10T18:16:58.946Z,29.57
2019-06-10T18:19:30.436Z,29.46
2019-06-10T18:22:02.902Z,29.36
2019-06-10T18:24:33.107Z,29.32
2019-06-10T18:27:03.822Z,29.25
2019-06-10T18:29:36.917Z,29.18
2019-06-10T18:32:06.443Z,29.09
2019-06-10T18:34:38.091Z,28.96
2019-06-10T18:37:08.622Z,28.86
2019-06-10T18:39:39.909Z,28.86
2019-06-10T18:42:12.668Z,28.81
2019-06-10T18:44:42.565Z,28.68
2019-06-10T18:47:13.512Z,28.61
2019-06-10T18:49:43.971Z,28.50
2019-06-10T18:52:14.310Z,28.44
2019-06-10T18:54:44.688Z,28.36
2019-06-10T18:57:16.625Z,28.25
2019-06-10T18:59:46.981Z,28.21
2019-06-10T19:02:17.356Z,28.14
2019-06-10T19:04:47.773Z,28.09
2019-06-10T19:07:18.196Z,28.05
2019-06-10T19:09:48.564Z,27.99
2019-06-10T19:12:18.995Z,27.91
2019-06-10T19:14:49.387Z,27.83
2019-06-10T19:17:19.788Z,27.74
2019-06-10T19:19:50.189Z,27.69
2019-06-10T19:22:22.542Z,27.64
2019-06-10T19:24:53.088Z,27.63
2019-06-10T19:27:24.037Z,27.53
2019-06-10T19:29:55.097Z,27.50
2019-06-10T19:32:25.497Z,27.44
2019-06-10T19:34:55.876Z,27.36
2019-06-10T19:37:26.275Z,27.29
2019-06-10T19:39:56.772Z,27.25
2019-06-10T19:42:27.110Z,27.25
2019-06-10T19:44:57.548Z,27.21
2019-06-10T19:47:28.502Z,27.16
2019-06-10T19:49:59.384Z,27.11
2019-06-10T19:52:32.498Z,27.08
2019-06-10T19:55:02.955Z,27.07
2019-06-10T19:57:34.256Z,27.01
2019-06-10T20:00:11.684Z,26.97
2019-06-10T20:02:39.681Z,26.94
2019-06-10T20:05:12.326Z,26.84
2019-06-10T20:07:48.443Z,26.77
2019-06-10T20:10:14.599Z,26.68
2019-06-10T20:12:46.651Z,26.60
2019-06-10T20:15:24.445Z,26.49
2019-06-10T20:17:54.996Z,26.45
2019-06-10T20:20:25.418Z,26.46
2019-06-10T20:22:57.493Z,26.47
2019-06-10T20:25:28.171Z,26.41
2019-06-10T20:27:58.582Z,26.37
2019-06-10T20:30:29.311Z,26.36
2019-06-10T20:33:03.046Z,26.31
2019-06-10T20:35:32.735Z,26.17
2019-06-10T20:38:05.029Z,26.13
2019-06-10T20:40:35.757Z,25.99
2019-06-10T20:43:06.251Z,25.98
2019-06-10T20:45:37.650Z,25.84
2019-06-10T20:48:08.586Z,25.81
2019-06-10T20:50:39.258Z,25.82
2019-06-10T20:53:17.441Z,25.69
2019-06-10T20:55:49.798Z,25.61
2019-06-10T20:58:13.840Z,25.51
2019-06-10T21:00:49.956Z,25.42
2019-06-10T21:03:16.401Z,25.40
2019-06-10T21:05:50.165Z,25.33
2019-06-10T21:08:22.640Z,25.31
2019-06-10T21:10:54.557Z,25.16
2019-06-10T21:13:25.271Z,25.12
2019-06-10T21:15:59.161Z,25.04
2019-06-10T21:18:28.145Z,25.01
2019-06-10T21:20:58.828Z,25.03
2019-06-10T21:23:29.670Z,24.94
2019-06-10T21:26:02.579Z,24.87
2019-06-10T21:28:32.700Z,24.81
2019-06-10T21:31:03.272Z,24.81
2019-06-10T21:33:33.683Z,24.72
2019-06-10T21:36:04.263Z,24.63
2019-06-10T21:38:34.676Z,24.55
2019-06-10T21:41:05.112Z,24.54
2019-06-10T21:43:35.587Z,24.51
2019-06-10T21:46:06.047Z,24.52
2019-06-10T21:48:36.488Z,24.53
2019-06-10T21:51:06.861Z,24.49
2019-06-10T21:53:37.364Z,24.49
2019-06-10T21:56:07.728Z,24.48
2019-06-10T21:58:38.236Z,24.47
2019-06-10T22:01:13.402Z,24.56
2019-06-10T22:03:43.477Z,24.55
2019-06-10T22:06:13.099Z,24.49
2019-06-10T22:08:44.179Z,24.46
2019-06-10T22:11:14.757Z,24.38
2019-06-10T22:13:46.130Z,24.30
2019-06-10T22:16:16.910Z,24.28
2019-06-10T22:18:49.118Z,24.18
2019-06-10T22:21:22.408Z,24.06
2019-06-10T22:23:55.044Z,24.00
2019-06-10T22:26:23.916Z,23.95
2019-06-10T22:28:56.263Z,23.83
2019-06-10T22:31:26.699Z,23.75
2019-06-10T22:33:57.783Z,23.73
2019-06-10T22:36:28.228Z,23.70
2019-06-10T22:38:59.413Z,23.68
2019-06-10T22:41:30.261Z,23.67
2019-06-10T22:44:03.304Z,23.65
2019-06-10T22:46:32.783Z,23.63
2019-06-10T22:49:03.227Z,23.61
2019-06-10T22:51:33.635Z,23.60
2019-06-10T22:54:04.206Z,23.60
2019-06-10T22:56:34.636Z,23.56
2019-06-10T22:59:05.095Z,23.56
2019-06-10T23:01:38.453Z,23.50
2019-06-10T23:04:08.915Z,23.54
2019-06-10T23:06:39.404Z,23.55
2019-06-10T23:09:09.813Z,23.52
2019-06-10T23:11:42.260Z,23.52
2019-06-10T23:14:12.470Z,23.47
2019-06-10T23:16:42.887Z,23.46
2019-06-10T23:19:13.297Z,23.39
2019-06-10T23:21:43.703Z,23.32
2019-06-10T23:24:14.304Z,23.35
2019-06-10T23:26:44.682Z,23.34
2019-06-10T23:29:15.057Z,23.28
2019-06-10T23:31:52.122Z,23.24
2019-06-10T23:34:19.836Z,23.16
2019-06-10T23:36:51.136Z,23.17
2019-06-10T23:39:23.747Z,23.12
2019-06-10T23:41:56.341Z,23.11
2019-06-10T23:44:26.507Z,23.08
2019-06-10T23:46:57.388Z,23.13
2019-06-10T23:49:28.064Z,23.04
2019-06-10T23:51:59.141Z,22.96
2019-06-10T23:57:01.430Z,22.86
2019-06-10T23:59:33.284Z,22.80
